Airfield :
LOGIN :

Register | Disclaimer

   EN    FR    IT 

 










Legend :    VFR   Marginal VFR   IFR   Intensive IFR   Very Intensive IFR
Visi :
Ceiling :
>= 8 km
>= 3000ft
5 to 8 km
1000 to 3000 ft
1500m to 5 km
500 to 1000 ft
800 to 1500m
200 to 500 ft
< 800m
< 200 ft
Symbols :   Thunderstorms  Fog  Heavy snow  Heavy precipitations  Wind > 20 kt
SIGMETs :     Misc.  Thunderstorms  Icing  Turbulence  Mountain Waves  Volcanic Ashes






- Airport Elevation : 84 ft


LFBC - Cazaux

CURRENT METAR :
  • 271030Z AUTO 29009KT 250V330 9999 SCT030 OVC062 19/11 Q1014 TEMPO 3000 SHRA SCT020TCU BECMG 30015G25KT

EXPIRED METARs :
  • 271000Z AUTO 28009KT 240V320 CAVOK 18/12 Q1014 TEMPO 3000 SHRA SCT020TCU
  • 270930Z AUTO 31003KT 240V350 CAVOK 17/11 Q1015 TEMPO 3000 SHRA SCT020TCU
  • 270900Z AUTO 34007KT 300V010 9999 FEW032 SCT042 OVC052 17/11 Q1014 TEMPO 3000 SHRA SCT020TCU
  • 270830Z AUTO 34007KT 300V020 9999 BKN036/// OVC140/// ///TCU 17/11 Q1014 TEMPO 3000 SHRA
  • 270800Z AUTO 32008KT 280V340 CAVOK 17/10 Q1014 TEMPO 3000 SHRA SCT020TCU

TAF TAF LFBC
Valid from the 27 at 09:00 until the 28 at 09:00 UTC


270800Z 2709/2809 30008KT 9999 SCT035 BKN050
TEMPO 2709/2718 3000 SHRA SCT020TCU
PROB40
TEMPO 2714/2718 28015G25KT
BECMG 2718/2720 3000 RA SCT007 BKN010
BECMG 2721/2723 9999 NSW BKN020
TEMPO 2723/2809 4000 SHRA BKN015TCU
PROB40
TEMPO 2723/2809 28020G30KT BKN010 BKN015TCU



MET'MAP, your aeronautical weather chart ! - Copyright ORBIFLY December 2007 - Disclaimer

ORBIFLY MET'MAP TEAM :

Programming & Development : Alexandra Zaïnal
Original concept : Baudouin d'Aumeries
Technical & hardware support : Manuel Goepfert
Assistance : Marc-Olivier Méhu




SOURCES & CREDITS :

   NOAA